Connexion S'enregistrer

Connexion à votre compte

Identifiant
Mot de passe
Maintenir la connexion active sur ce site

Créer un compte

Pour valider ce formulaire, vous devez remplir tous les champs.
Nom
Identifiant
Mot de passe
Répétez le mot de passe
Adresse e-mail
Répétez l'adresse e-mail

Nous contacter

 Téléphone : +33 (0)4 79 54 41 81

Coordonnées détaillées et accès : cliquez ici

 
LFLB °C
    Ferienhaus Ostsee
[source: ADDS]
METAR
LFLB 200230Z AUTO 00000KT CAVOK 09/07 Q1024 NOSIG =
TAF
TAF LFLB 192300Z 2000/2024 VRB02KT CAVOK TEMPO 2010/2018 35005KT =
SR / SS: 04:41 / 18:29 UTC (Lever/Coucher du soleil le 2018-04-20)
JSN Boot template designed by JoomlaShine.com